Obert, Nebraska
Current Conditions -  °F | °C
As of 8:15 PM on Monday 22 Dec 2014 (Local Time) from KLCG Reporting Station
Drizzle Drizzle  
Wind Chill: 29°   Ceiling: 1000
Heat Index: 36°   Visibility: 7mi
Dew Point: 34°   Wind: 9mph
Humidity: 94%   Direction: 310°NW
Pressure: 29.47"   Gusts: NA
Location:  42.5999°N, 96.8805°W
Report Text: KLCG 230215Z AUTO 31008KT 7SM DZ OVC010 02/01 A2947 RMK AO2 T00220013
Loading
Personal Weather Stations






























Interactive Weather Map New forecast layout! Learn more

10-Day Weather Forecast

Advertisements
Track Severe Weather on mobile